Terminal Aerodrome Forecast
Issued by NWS

Home | Current Version | Previous Version | Text Only | Print | Product List | Glossary On
Versions: 1 2 3 4 5 6 7 8 9 10 11 12 13 14 15 16 17 18 19 20 21
000
FTUS41 KALY 261940 AAB
TAFPSF
TAF AMD
KPSF 261940Z 2620/2718 VRB04KT 2SM -RA BR BKN007 OVC015
      TEMPO 2620/2624 1/4SM -RA FG VV002
     FM270200 32006KT 3SM -RA BR SCT004 OVC008
     FM270700 32005KT P6SM VCSH SCT008 OVC020
     FM271000 33004KT P6SM VCSH SCT020 OVC040
     FM271400 31005KT P6SM BKN040=

USA.gov is the U.S. government's official web portal to all federal, state and local government web resources and services.